createdAt,value
2019-06-08T00:01:36.358Z,1.62
2019-06-08T00:04:04.655Z,1.70
2019-06-08T00:06:32.857Z,1.87
2019-06-08T00:09:01.069Z,1.67
2019-06-08T00:11:29.272Z,1.87
2019-06-08T00:13:57.488Z,1.77
2019-06-08T00:16:25.695Z,1.37
2019-06-08T00:18:53.904Z,1.82
2019-06-08T00:21:22.115Z,1.90
2019-06-08T00:23:50.318Z,1.60
2019-06-08T00:26:18.525Z,2.17
2019-06-08T00:28:46.732Z,1.80
2019-06-08T00:31:15.319Z,1.40
2019-06-08T00:33:43.728Z,1.40
2019-06-08T00:36:11.935Z,1.60
2019-06-08T00:38:40.136Z,1.45
2019-06-08T00:41:08.368Z,1.80
2019-06-08T00:43:36.570Z,1.70
2019-06-08T00:46:04.771Z,1.25
2019-06-08T00:48:32.983Z,1.45
2019-06-08T00:51:01.209Z,1.85
2019-06-08T00:53:29.663Z,2.08
2019-06-08T00:55:57.979Z,1.90
2019-06-08T00:58:26.435Z,2.05
2019-06-08T01:00:54.790Z,2.02
2019-06-08T01:03:23.790Z,2.08
2019-06-08T01:05:52.079Z,1.85
2019-06-08T01:08:22.071Z,2.00
2019-06-08T01:10:50.234Z,2.45
2019-06-08T01:13:18.848Z,2.20
2019-06-08T01:15:47.129Z,2.10
2019-06-08T01:18:15.391Z,1.80
2019-06-08T01:20:43.800Z,2.05
2019-06-08T01:23:12.042Z,2.22
2019-06-08T01:25:40.258Z,2.05
2019-06-08T01:28:08.458Z,2.00
2019-06-08T01:30:36.683Z,2.25
2019-06-08T01:33:04.879Z,1.90
2019-06-08T01:35:33.101Z,1.60
2019-06-08T01:38:01.308Z,1.70
2019-06-08T01:40:29.622Z,1.72
2019-06-08T01:42:57.900Z,1.80
2019-06-08T01:45:32.817Z,1.98
2019-06-08T01:48:15.958Z,1.80
2019-06-08T01:53:01.120Z,1.40
2019-06-08T01:55:31.019Z,1.57
2019-06-08T01:57:59.499Z,1.90
2019-06-08T02:00:34.757Z,1.67
2019-06-08T02:05:26.108Z,1.80
2019-06-08T02:07:54.430Z,1.80
2019-06-08T02:10:22.639Z,2.15
2019-06-08T02:12:50.859Z,2.00
2019-06-08T02:15:19.064Z,2.15
2019-06-08T02:17:47.294Z,2.17
2019-06-08T02:20:15.578Z,1.60
2019-06-08T02:22:43.783Z,1.60
2019-06-08T02:25:13.748Z,1.60
2019-06-08T02:27:41.963Z,2.05
2019-06-08T02:30:12.188Z,1.50
2019-06-08T02:32:40.634Z,1.52
2019-06-08T02:35:09.252Z,1.85
2019-06-08T02:37:38.417Z,1.80
2019-06-08T02:40:07.400Z,1.62
2019-06-08T02:42:37.140Z,1.52
2019-06-08T02:45:06.633Z,1.67
2019-06-08T02:47:36.486Z,1.62
2019-06-08T02:50:08.091Z,1.42
2019-06-08T02:52:38.313Z,1.52
2019-06-08T02:55:07.351Z,1.60
2019-06-08T02:57:37.703Z,1.47
2019-06-08T03:00:09.353Z,1.82
2019-06-08T03:02:39.091Z,1.52
2019-06-08T03:05:07.572Z,1.40
2019-06-08T03:07:38.939Z,1.50
2019-06-08T03:10:06.885Z,1.50
2019-06-08T03:12:35.708Z,1.80
2019-06-08T03:15:05.297Z,1.22
2019-06-08T03:17:34.033Z,1.82
2019-06-08T03:20:07.240Z,1.30
2019-06-08T03:22:37.146Z,1.35
2019-06-08T03:25:06.171Z,1.75
2019-06-08T03:27:34.847Z,1.47
2019-06-08T03:30:16.101Z,1.10
2019-06-08T03:32:42.073Z,1.17
2019-06-08T03:35:07.028Z,1.20
2019-06-08T03:37:35.754Z,1.75
2019-06-08T03:40:04.433Z,1.20
2019-06-08T03:42:32.630Z,1.30
2019-06-08T03:45:00.860Z,1.20
2019-06-08T03:47:29.069Z,1.40
2019-06-08T03:49:57.849Z,1.75
2019-06-08T03:52:26.261Z,1.40
2019-06-08T03:54:54.478Z,1.12
2019-06-08T03:57:22.688Z,1.40
2019-06-08T03:59:50.895Z,1.40
2019-06-08T04:02:19.106Z,1.20
2019-06-08T04:04:47.322Z,1.42
2019-06-08T04:07:15.545Z,1.12
2019-06-08T04:09:43.761Z,1.27
2019-06-08T04:12:11.963Z,1.55
2019-06-08T04:14:42.023Z,1.05
2019-06-08T04:17:10.117Z,1.92
2019-06-08T04:19:39.865Z,1.35
2019-06-08T04:22:08.217Z,1.15
2019-06-08T04:24:37.946Z,1.15
2019-06-08T04:27:06.309Z,1.20
2019-06-08T04:29:34.524Z,1.02
2019-06-08T04:32:02.769Z,1.40
2019-06-08T04:34:31.032Z,1.37
2019-06-08T04:36:59.261Z,1.10
2019-06-08T04:39:27.465Z,1.35
2019-06-08T04:41:55.702Z,1.10
2019-06-08T04:44:23.883Z,1.20
2019-06-08T04:46:52.110Z,1.47
2019-06-08T04:49:20.315Z,1.40
2019-06-08T04:51:49.506Z,1.20
2019-06-08T04:54:17.970Z,1.80
2019-06-08T04:56:47.084Z,1.70
2019-06-08T04:59:15.487Z,1.75
2019-06-08T05:01:45.089Z,1.52
2019-06-08T05:04:13.444Z,1.33
2019-06-08T05:06:42.953Z,1.50
2019-06-08T05:09:11.393Z,1.70
2019-06-08T05:11:41.002Z,1.40
2019-06-08T05:14:09.384Z,1.70
2019-06-08T05:16:39.012Z,1.98
2019-06-08T05:19:07.314Z,2.60
2019-06-08T05:21:35.514Z,1.40
2019-06-08T05:24:03.741Z,1.52
2019-06-08T05:26:31.971Z,1.50
2019-06-08T05:29:00.232Z,1.55
2019-06-08T05:31:28.553Z,1.52
2019-06-08T05:33:56.772Z,1.47
2019-06-08T05:36:25.006Z,1.80
2019-06-08T05:38:53.196Z,1.47
2019-06-08T05:41:24.100Z,1.80
2019-06-08T05:43:51.335Z,1.50
2019-06-08T05:46:19.562Z,1.42
2019-06-08T05:48:48.039Z,1.30
2019-06-08T05:51:16.399Z,1.90
2019-06-08T05:53:45.756Z,1.90
2019-06-08T05:56:14.103Z,1.90
2019-06-08T05:58:42.312Z,1.40
2019-06-08T06:01:10.531Z,1.52
2019-06-08T06:03:38.740Z,1.80
2019-06-08T06:06:06.962Z,1.30
2019-06-08T06:08:35.167Z,1.15
2019-06-08T06:11:03.382Z,1.77
2019-06-08T06:13:31.602Z,1.87
2019-06-08T06:15:59.805Z,1.62
2019-06-08T06:18:28.046Z,1.98
2019-06-08T06:21:09.717Z,2.22
2019-06-08T06:23:26.212Z,1.72
2019-06-08T06:25:54.432Z,1.77
2019-06-08T06:28:22.666Z,1.30
2019-06-08T06:30:52.222Z,2.05
2019-06-08T06:33:20.633Z,1.80
2019-06-08T06:35:49.942Z,1.20
2019-06-08T06:38:18.473Z,1.77
2019-06-08T06:40:48.025Z,1.80
2019-06-08T06:43:16.407Z,1.40
2019-06-08T06:45:45.981Z,1.62
2019-06-08T06:48:14.341Z,1.37
2019-06-08T06:50:42.774Z,1.77
2019-06-08T06:53:10.976Z,1.40
2019-06-08T06:55:39.192Z,1.30
2019-06-08T06:58:07.469Z,2.40
2019-06-08T07:00:35.696Z,1.50
2019-06-08T07:03:03.987Z,1.70
2019-06-08T07:05:32.197Z,1.32
2019-06-08T07:08:00.416Z,1.70
2019-06-08T07:10:28.628Z,1.60
2019-06-08T07:12:56.916Z,1.42
2019-06-08T07:15:28.676Z,4.33
2019-06-08T07:17:58.588Z,1.22
2019-06-08T07:20:26.950Z,1.17
2019-06-08T07:22:55.453Z,1.65
2019-06-08T07:25:23.672Z,1.40
2019-06-08T07:27:52.632Z,1.17
2019-06-08T07:30:21.527Z,1.67
2019-06-08T07:32:50.894Z,1.20
2019-06-08T07:35:19.289Z,1.92
2019-06-08T07:37:48.975Z,1.52
2019-06-08T07:40:19.192Z,1.55
2019-06-08T07:42:47.863Z,1.52
2019-06-08T07:45:17.528Z,1.07
2019-06-08T07:47:45.749Z,1.47
2019-06-08T07:50:14.216Z,1.47
2019-06-08T07:52:42.421Z,1.95
2019-06-08T07:55:10.627Z,1.27
2019-06-08T07:57:38.890Z,1.65
2019-06-08T08:00:09.399Z,1.45
2019-06-08T08:05:06.318Z,1.55
2019-06-08T08:07:34.519Z,1.20
2019-06-08T08:10:03.793Z,1.50
2019-06-08T08:12:31.996Z,1.20
2019-06-08T08:15:00.214Z,1.92
2019-06-08T08:17:28.421Z,1.55
2019-06-08T08:19:57.344Z,1.62
2019-06-08T08:22:28.893Z,1.70
2019-06-08T08:25:00.205Z,1.67
2019-06-08T08:27:27.951Z,1.50
2019-06-08T08:29:55.463Z,1.42
2019-06-08T08:32:28.344Z,1.42
2019-06-08T08:34:59.221Z,1.20
2019-06-08T08:37:28.112Z,1.65
2019-06-08T08:39:59.640Z,1.40
2019-06-08T08:42:27.117Z,1.50
2019-06-08T08:45:02.715Z,1.40
2019-06-08T08:47:27.743Z,1.60
2019-06-08T08:49:58.719Z,1.60
2019-06-08T08:52:36.263Z,1.65
2019-06-08T08:54:58.966Z,1.35
2019-06-08T08:57:26.067Z,1.40
2019-06-08T08:59:56.102Z,1.37
2019-06-08T09:02:24.271Z,1.30
2019-06-08T09:04:53.488Z,1.50
2019-06-08T09:07:22.376Z,1.40
2019-06-08T09:09:51.947Z,1.22
2019-06-08T09:12:20.602Z,1.62
2019-06-08T09:14:48.979Z,1.52
2019-06-08T09:17:18.094Z,1.50
2019-06-08T09:19:48.057Z,1.72
2019-06-08T09:22:18.641Z,1.20
2019-06-08T09:24:48.409Z,1.87
2019-06-08T09:27:17.898Z,1.60
2019-06-08T09:29:48.201Z,1.42
2019-06-08T09:32:18.020Z,1.75
2019-06-08T09:34:48.319Z,1.20
2019-06-08T09:37:18.368Z,1.32
2019-06-08T09:39:48.203Z,1.77
2019-06-08T09:42:20.919Z,1.50
2019-06-08T09:44:48.212Z,1.62
2019-06-08T09:47:17.961Z,1.30
2019-06-08T09:49:48.052Z,1.55
2019-06-08T09:52:18.204Z,1.92
2019-06-08T09:54:48.012Z,1.25
2019-06-08T09:57:18.531Z,1.40
2019-06-08T09:59:48.085Z,1.70
2019-06-08T10:02:18.210Z,1.37
2019-06-08T10:04:45.580Z,1.45
2019-06-08T10:07:13.804Z,1.67
2019-06-08T10:09:43.468Z,1.92
2019-06-08T10:12:11.943Z,1.50
2019-06-08T10:14:40.196Z,1.32
2019-06-08T10:17:08.999Z,1.35
2019-06-08T10:19:37.420Z,1.30
2019-06-08T10:22:08.407Z,1.37
2019-06-08T10:24:35.540Z,1.75
2019-06-08T10:27:05.494Z,1.40
2019-06-08T10:29:33.684Z,1.47
2019-06-08T10:32:01.978Z,1.50
2019-06-08T10:34:30.180Z,1.50
2019-06-08T10:37:03.380Z,1.50
2019-06-08T10:39:28.424Z,1.90
2019-06-08T10:41:59.572Z,1.67
2019-06-08T10:44:28.334Z,1.27
2019-06-08T10:46:59.098Z,1.42
2019-06-08T10:49:28.703Z,1.40
2019-06-08T10:51:59.019Z,1.30
2019-06-08T10:54:27.720Z,1.32
2019-06-08T10:56:59.679Z,1.25
2019-06-08T10:59:26.023Z,1.30
2019-06-08T11:01:54.228Z,1.52
2019-06-08T11:04:22.436Z,1.55
2019-06-08T11:06:50.653Z,1.35
2019-06-08T11:09:19.226Z,1.20
2019-06-08T11:11:48.129Z,1.52
2019-06-08T11:14:18.379Z,1.37
2019-06-08T11:16:47.584Z,1.15
2019-06-08T11:19:17.993Z,2.12
2019-06-08T11:21:48.090Z,1.37
2019-06-08T11:24:23.477Z,0.98
2019-06-08T11:26:47.859Z,1.40
2019-06-08T11:29:18.416Z,1.35
2019-06-08T11:31:48.400Z,1.60
2019-06-08T11:34:15.857Z,1.35
2019-06-08T11:36:45.759Z,1.40
2019-06-08T11:39:13.965Z,1.25
2019-06-08T11:41:42.166Z,1.40
2019-06-08T11:44:12.505Z,1.42
2019-06-08T11:46:42.545Z,1.32
2019-06-08T11:49:14.361Z,1.10
2019-06-08T11:52:00.450Z,1.20
2019-06-08T11:54:36.477Z,1.32
2019-06-08T11:56:58.777Z,1.15
2019-06-08T11:59:28.485Z,1.10
2019-06-08T12:01:58.643Z,1.15
2019-06-08T12:04:28.319Z,1.30
2019-06-08T12:06:58.455Z,1.00
2019-06-08T12:09:28.525Z,0.95
2019-06-08T12:11:58.125Z,1.65
2019-06-08T12:14:26.472Z,0.98
2019-06-08T12:16:54.683Z,1.10
2019-06-08T12:19:22.887Z,1.20
2019-06-08T12:21:51.150Z,1.20
2019-06-08T12:24:19.349Z,1.27
2019-06-08T12:26:51.788Z,1.50
2019-06-08T12:31:47.361Z,1.72
2019-06-08T12:34:18.017Z,1.32
2019-06-08T12:36:47.939Z,1.00
2019-06-08T12:39:18.590Z,1.42
2019-06-08T12:41:47.752Z,1.00
2019-06-08T12:44:16.790Z,1.10
2019-06-08T12:46:45.284Z,1.17
2019-06-08T12:49:14.418Z,0.90
2019-06-08T12:51:43.426Z,1.10
2019-06-08T12:54:12.816Z,0.95
2019-06-08T12:56:41.565Z,1.25
2019-06-08T12:59:14.594Z,1.25
2019-06-08T13:01:39.720Z,1.17
2019-06-08T13:04:07.925Z,1.35
2019-06-08T13:06:37.776Z,1.22
2019-06-08T13:09:08.986Z,1.22
2019-06-08T13:11:36.243Z,1.37
2019-06-08T13:14:04.468Z,1.32
2019-06-08T13:16:32.766Z,1.50
2019-06-08T13:19:00.992Z,1.20
2019-06-08T13:21:34.933Z,1.20
2019-06-08T13:23:59.147Z,1.40
2019-06-08T13:26:30.852Z,1.67
2019-06-08T13:28:58.334Z,1.20
2019-06-08T13:31:28.708Z,1.30
2019-06-08T13:33:58.624Z,1.20
2019-06-08T13:36:29.534Z,1.20
2019-06-08T13:38:56.940Z,1.50
2019-06-08T13:41:27.214Z,1.35
2019-06-08T13:43:55.071Z,1.22
2019-06-08T13:46:23.690Z,1.50
2019-06-08T13:48:51.964Z,1.05
2019-06-08T13:51:22.467Z,1.30
2019-06-08T13:53:50.146Z,1.02
2019-06-08T13:56:20.662Z,1.27
2019-06-08T13:58:48.831Z,1.00
2019-06-08T14:01:17.629Z,1.22
2019-06-08T14:03:49.790Z,1.10
2019-06-08T14:06:18.570Z,1.32
2019-06-08T14:08:47.905Z,0.90
2019-06-08T14:11:17.186Z,1.22
2019-06-08T14:13:47.931Z,1.15
2019-06-08T14:16:16.057Z,1.30
2019-06-08T14:18:45.236Z,0.97
2019-06-08T14:21:13.443Z,1.70
2019-06-08T14:23:41.648Z,1.10
2019-06-08T14:26:09.864Z,1.07
2019-06-08T14:28:38.174Z,1.15
2019-06-08T14:31:08.357Z,1.10
2019-06-08T14:33:38.110Z,1.00
2019-06-08T14:36:07.977Z,1.10
2019-06-08T14:38:41.042Z,1.05
2019-06-08T14:41:07.636Z,0.95
2019-06-08T14:43:38.085Z,1.12
2019-06-08T14:46:07.905Z,1.30
2019-06-08T14:48:38.004Z,1.25
2019-06-08T14:51:08.552Z,1.30
2019-06-08T14:53:35.751Z,1.60
2019-06-08T14:56:08.202Z,1.02
2019-06-08T14:58:35.142Z,1.22
2019-06-08T15:01:03.472Z,1.50
2019-06-08T15:03:31.689Z,1.10
2019-06-08T15:05:59.887Z,1.40
2019-06-08T15:08:28.647Z,1.22
2019-06-08T15:10:58.344Z,1.25
2019-06-08T15:13:28.609Z,1.10
2019-06-08T15:16:00.399Z,1.22
2019-06-08T15:18:28.858Z,0.98
2019-06-08T15:20:58.093Z,1.30
2019-06-08T15:23:28.979Z,1.22
2019-06-08T15:25:58.151Z,0.93
2019-06-08T15:28:29.289Z,0.98
2019-06-08T15:30:59.821Z,1.05
2019-06-08T15:33:30.285Z,1.10
2019-06-08T15:35:57.561Z,1.15
2019-06-08T15:38:25.883Z,1.05
2019-06-08T15:40:54.099Z,1.10
2019-06-08T15:43:22.299Z,1.32
2019-06-08T15:45:51.375Z,1.22
2019-06-08T15:48:20.465Z,1.20
2019-06-08T15:50:49.445Z,0.80
2019-06-08T15:53:18.393Z,1.07
2019-06-08T15:55:48.762Z,1.07
2019-06-08T15:58:18.201Z,1.32
2019-06-08T16:00:46.903Z,1.30
2019-06-08T16:03:15.120Z,1.25
2019-06-08T16:05:43.338Z,1.15
2019-06-08T16:08:11.543Z,0.98
2019-06-08T16:10:39.756Z,1.02
2019-06-08T16:13:07.960Z,1.30
2019-06-08T16:15:36.176Z,1.20
2019-06-08T16:18:04.386Z,1.40
2019-06-08T16:20:33.571Z,1.42
2019-06-08T16:23:01.980Z,1.20
2019-06-08T16:25:33.487Z,1.10
2019-06-08T16:28:00.887Z,1.10
2019-06-08T16:30:29.095Z,1.07
2019-06-08T16:32:57.304Z,0.90
2019-06-08T16:35:25.562Z,0.98
2019-06-08T16:37:53.806Z,1.00
2019-06-08T16:40:22.005Z,1.22
2019-06-08T16:42:50.216Z,1.05
2019-06-08T16:45:18.442Z,1.07
2019-06-08T16:47:46.650Z,1.25
2019-06-08T16:50:24.184Z,1.10
2019-06-08T16:52:44.787Z,1.02
2019-06-08T16:55:12.991Z,1.00
2019-06-08T16:57:41.397Z,1.00
2019-06-08T17:02:39.677Z,1.37
2019-06-08T17:05:07.880Z,1.00
2019-06-08T17:07:36.087Z,1.52
2019-06-08T17:10:05.836Z,1.10
2019-06-08T17:12:34.733Z,1.15
2019-06-08T17:15:03.509Z,1.27
2019-06-08T17:17:32.067Z,1.00
2019-06-08T17:20:00.440Z,1.10
2019-06-08T17:22:30.165Z,1.30
2019-06-08T17:24:58.541Z,0.93
2019-06-08T17:27:27.334Z,1.00
2019-06-08T17:29:55.615Z,1.10
2019-06-08T17:32:23.841Z,1.12
2019-06-08T17:34:52.218Z,2.05
2019-06-08T17:37:20.532Z,1.60
2019-06-08T17:39:48.731Z,1.32
2019-06-08T17:42:16.941Z,0.90
2019-06-08T17:44:45.161Z,0.85
2019-06-08T17:47:13.394Z,1.30
2019-06-08T17:49:43.192Z,1.05
2019-06-08T17:52:11.620Z,1.20
2019-06-08T17:54:41.065Z,1.00
2019-06-08T17:57:09.797Z,1.05
2019-06-08T17:59:39.379Z,1.20
2019-06-08T18:02:10.643Z,1.07
2019-06-08T18:04:39.358Z,1.10
2019-06-08T18:07:07.660Z,1.00
2019-06-08T18:09:38.844Z,1.00
2019-06-08T18:14:38.736Z,1.45
2019-06-08T18:17:07.975Z,1.17
2019-06-08T18:19:40.256Z,1.30
2019-06-08T18:22:08.937Z,1.80
2019-06-08T18:24:37.916Z,1.12
2019-06-08T18:27:07.638Z,1.40
2019-06-08T18:29:37.167Z,1.40
2019-06-08T18:32:07.610Z,1.10
2019-06-08T18:34:37.375Z,1.47
2019-06-08T18:37:05.300Z,1.22
2019-06-08T18:39:33.519Z,1.45
2019-06-08T18:42:02.911Z,1.30
2019-06-08T18:44:31.108Z,1.07
2019-06-08T18:46:59.340Z,1.40
2019-06-08T18:49:28.814Z,1.20
2019-06-08T18:51:58.270Z,1.40
2019-06-08T18:54:27.873Z,1.32
2019-06-08T18:56:56.634Z,1.30
2019-06-08T18:59:24.988Z,1.17
2019-06-08T19:01:53.265Z,1.40
2019-06-08T19:04:21.563Z,1.22
2019-06-08T19:06:50.146Z,1.85
2019-06-08T19:09:18.478Z,1.60
2019-06-08T19:11:48.674Z,1.50
2019-06-08T19:14:17.885Z,1.10
2019-06-08T19:16:51.448Z,1.22
2019-06-08T19:19:16.498Z,1.55
2019-06-08T19:21:44.988Z,1.10
2019-06-08T19:24:13.371Z,1.25
2019-06-08T19:26:43.140Z,1.72
2019-06-08T19:29:11.522Z,1.57
2019-06-08T19:31:42.357Z,1.32
2019-06-08T19:34:10.035Z,1.12
2019-06-08T19:36:39.924Z,1.10
2019-06-08T19:39:08.561Z,1.45
2019-06-08T19:41:38.078Z,1.50
2019-06-08T19:44:07.525Z,1.40
2019-06-08T19:46:35.812Z,1.27
2019-06-08T19:49:04.015Z,1.67
2019-06-08T19:51:32.221Z,1.30
2019-06-08T19:54:00.457Z,2.00
2019-06-08T19:56:28.880Z,1.60
2019-06-08T19:59:03.944Z,2.47
2019-06-08T20:01:27.687Z,2.27
2019-06-08T20:03:57.992Z,1.80
2019-06-08T20:06:27.771Z,1.70
2019-06-08T20:08:57.509Z,1.60
2019-06-08T20:11:26.076Z,1.52
2019-06-08T20:13:54.276Z,1.70
2019-06-08T20:16:22.535Z,1.67
2019-06-08T20:18:51.702Z,1.98
2019-06-08T20:21:20.721Z,1.80
2019-06-08T20:23:50.815Z,1.85
2019-06-08T20:26:18.877Z,1.95
2019-06-08T20:28:50.843Z,2.10
2019-06-08T20:31:18.017Z,1.98
2019-06-08T20:33:48.169Z,2.27
2019-06-08T20:36:17.474Z,2.05
2019-06-08T20:38:46.400Z,1.98
2019-06-08T20:41:18.132Z,2.30
2019-06-08T20:43:49.087Z,2.83
2019-06-08T20:46:17.183Z,2.62
2019-06-08T20:48:48.589Z,2.37
2019-06-08T20:51:17.221Z,2.30
2019-06-08T20:53:48.768Z,2.27
2019-06-08T20:56:17.374Z,2.60
2019-06-08T20:58:47.936Z,2.00
2019-06-08T21:01:17.888Z,1.98
2019-06-08T21:03:48.146Z,2.20
2019-06-08T21:06:17.165Z,2.47
2019-06-08T21:08:46.585Z,3.53
2019-06-08T21:11:17.493Z,2.27
2019-06-08T21:13:47.353Z,2.77
2019-06-08T21:16:18.066Z,2.52
2019-06-08T21:18:45.273Z,2.70
2019-06-08T21:21:13.472Z,2.50
2019-06-08T21:23:41.687Z,2.70
2019-06-08T21:26:09.891Z,2.60
2019-06-08T21:28:38.548Z,2.90
2019-06-08T21:31:08.543Z,2.80
2019-06-08T21:33:37.961Z,2.70
2019-06-08T21:36:08.741Z,2.42
2019-06-08T21:38:37.697Z,2.77
2019-06-08T21:41:08.251Z,2.72
2019-06-08T21:43:37.458Z,2.85
2019-06-08T21:46:07.778Z,3.02
2019-06-08T21:48:37.981Z,3.45
2019-06-08T21:51:08.016Z,3.55
2019-06-08T21:53:37.993Z,3.05
2019-06-08T21:56:07.655Z,3.65
2019-06-08T21:58:37.681Z,3.12
2019-06-08T22:01:07.358Z,3.55
2019-06-08T22:03:37.906Z,3.40
2019-06-08T22:06:07.621Z,3.15
2019-06-08T22:08:37.438Z,3.50
2019-06-08T22:11:05.183Z,4.08
2019-06-08T22:13:33.428Z,3.80
2019-06-08T22:16:03.656Z,3.77
2019-06-08T22:18:31.562Z,3.80
2019-06-08T22:21:01.067Z,2.65
2019-06-08T22:23:29.440Z,2.97
2019-06-08T22:25:59.565Z,2.95
2019-06-08T22:28:27.605Z,2.75
2019-06-08T22:30:58.455Z,2.62
2019-06-08T22:33:27.960Z,2.37
2019-06-08T22:35:58.527Z,2.67
2019-06-08T22:38:25.580Z,3.77
2019-06-08T22:40:54.772Z,3.37
2019-06-08T22:43:23.717Z,2.52
2019-06-08T22:45:52.950Z,3.58
2019-06-08T22:48:21.880Z,3.35
2019-06-08T22:50:50.080Z,4.03
2019-06-08T22:53:18.305Z,4.12
2019-06-08T22:55:47.653Z,4.12
2019-06-08T22:58:19.030Z,4.83
2019-06-08T23:00:52.663Z,4.50
2019-06-08T23:03:18.539Z,4.10
2019-06-08T23:05:47.744Z,4.37
2019-06-08T23:08:17.594Z,4.70
2019-06-08T23:10:48.079Z,4.37
2019-06-08T23:13:17.997Z,3.77
2019-06-08T23:15:47.975Z,3.10
2019-06-08T23:18:17.929Z,3.20
2019-06-08T23:20:47.762Z,3.65
2019-06-08T23:23:17.703Z,3.52
2019-06-08T23:25:47.683Z,4.00
2019-06-08T23:28:17.902Z,4.00
2019-06-08T23:30:47.531Z,4.37
2019-06-08T23:33:15.412Z,4.22
2019-06-08T23:36:20.741Z,3.90
2019-06-08T23:38:13.540Z,3.90
2019-06-08T23:40:42.993Z,3.67
2019-06-08T23:43:11.193Z,3.92
2019-06-08T23:45:39.459Z,3.72
2019-06-08T23:48:08.724Z,3.83
2019-06-08T23:50:37.941Z,3.95
2019-06-08T23:53:09.129Z,4.17
2019-06-08T23:55:37.236Z,4.50
2019-06-08T23:58:08.123Z,4.58
